PS52 weather

Alberter Farms Airport
Johnstown, Pennsylvania, United States

Public forecast

Using degrees Fahrenheit for public forecast. Weather courtesy of forecast.io.

Closest aviation weather report (METAR) to Alberter Farms Airport

Closest report is John Murtha Johnstown Cambria County Airport, 7.3 nm (13.5 km) N. Retrieved 2019/10/23 09:54 UTC (12 minutes ago):

KJST 230954Z AUTO 26006KT 10SM CLR 07/03 A2994 RMK AO2 SLP142 T00670033

Closest aviation forecast (TAF) to Alberter Farms Airport

Closest forecast is John Murtha Johnstown Cambria County Airport, 7.3 nm (13.5 km) N. Retrieved 2019/10/23 06:54 UTC (3 hours ago):

TAF KJST 230551Z 2306/2406 27009KT P6SM BKN060 FM230900 25010KT 4SM BR BKN035 FM231300 26012G19KT P6SM SKC